Time;durP1;ratioP1;P1;durP2;ratioP2;P2;SDS_P1;SDS_P2;PMS_P1;PMS_P2;Temp;Humidity;BMP_temperature;BMP_pressure;BME280_temperature;BME280_humidity;BME280_pressure;Samples;Min_cycle;Max_cycle;Signal;HPM_P1;HPM_P2
2022/06/18 00:00:58;;;;;;;10.45;4.20;;;;;;;23.29;79.68;101430.75;5074922;28;20035;-77
2022/06/18 00:03:25;;;;;;;10.48;3.80;;;;;;;23.26;79.79;101428.31;5087869;28;20132;-77
2022/06/18 00:05:54;;;;;;;11.73;4.22;;;;;;;23.22;80.17;101427.00;5069760;28;20028;-77
2022/06/18 00:08:24;;;;;;;8.73;3.58;;;;;;;23.15;80.95;101437.16;5083657;28;20399;-77
2022/06/18 00:13:39;;;;;;;12.25;4.20;;;;;;;23.18;80.52;101428.41;5073570;28;20094;-78
2022/06/18 00:13:41;;;;;;;7.97;3.92;;;;;;;23.18;81.04;101433.16;5087170;28;20464;-77
2022/06/18 00:16:18;;;;;;;6.68;4.18;;;;;;;23.16;80.56;101432.47;5066912;28;20036;-78
2022/06/18 00:18:44;;;;;;;6.53;3.60;;;;;;;23.15;80.49;101423.19;5072329;28;20484;-78
2022/06/18 00:21:16;;;;;;;9.45;3.80;;;;;;;23.21;80.66;101424.38;5076977;28;20031;-78
2022/06/18 00:23:42;;;;;;;13.27;4.05;;;;;;;23.13;81.14;101426.19;5089247;28;20090;-78
2022/06/18 00:26:10;;;;;;;11.02;3.47;;;;;;;23.12;81.49;101430.06;5089191;28;20468;-78
2022/06/18 00:28:35;;;;;;;7.80;3.60;;;;;;;23.04;81.77;101430.09;5081554;28;20089;-78
2022/06/18 00:31:01;;;;;;;10.25;3.90;;;;;;;23.01;82.13;101430.47;5082361;28;20043;-78
2022/06/18 00:33:27;;;;;;;8.93;4.00;;;;;;;22.89;83.09;101434.78;5060220;28;22308;-77
2022/06/18 00:35:58;;;;;;;21.25;4.25;;;;;;;22.89;82.85;101430.06;5092223;28;20028;-78
2022/06/18 00:38:37;;;;;;;11.18;4.30;;;;;;;22.84;83.48;101427.00;5108969;28;20024;-77
2022/06/18 00:41:04;;;;;;;10.23;3.92;;;;;;;22.85;83.30;101428.72;5084414;28;20056;-77
2022/06/18 00:43:59;;;;;;;10.75;4.35;;;;;;;22.81;83.55;101426.47;5072406;28;20027;-78
2022/06/18 00:46:45;;;;;;;7.70;4.20;;;;;;;22.76;84.02;101422.34;5074890;28;20044;-77
2022/06/18 00:49:25;;;;;;;9.43;4.75;;;;;;;22.68;84.71;101415.97;5088610;28;20032;-78
2022/06/18 00:52:17;;;;;;;15.27;4.28;;;;;;;22.63;84.45;101415.63;5075935;28;20079;-78
2022/06/18 00:54:51;;;;;;;17.23;4.93;;;;;;;22.60;85.40;101416.03;5037362;28;20150;-78
2022/06/18 00:57:28;;;;;;;14.57;4.22;;;;;;;22.52;85.22;101419.75;5074914;28;20107;-77
2022/06/18 00:59:59;;;;;;;17.58;4.40;;;;;;;22.52;85.74;101419.75;5091511;28;20128;-77
2022/06/18 01:02:30;;;;;;;18.25;4.63;;;;;;;22.46;85.97;101415.78;5081506;28;20068;-77
2022/06/18 01:04:55;;;;;;;11.05;4.30;;;;;;;22.41;86.70;101418.25;5076214;28;20028;-77
2022/06/18 01:07:32;;;;;;;14.77;5.45;;;;;;;22.34;87.07;101418.13;5078719;28;20020;-77
2022/06/18 01:10:01;;;;;;;9.40;4.50;;;;;;;22.29;87.29;101411.38;5062798;28;20032;-77
2022/06/18 01:12:27;;;;;;;14.20;4.35;;;;;;;22.25;87.59;101412.75;5081465;28;20031;-77
2022/06/18 01:15:08;;;;;;;18.77;4.65;;;;;;;22.19;88.50;101408.81;5075997;28;20043;-77
2022/06/18 01:17:36;;;;;;;10.38;4.68;;;;;;;22.13;88.94;101410.38;5093269;28;20072;-78
2022/06/18 01:20:06;;;;;;;14.02;4.88;;;;;;;22.14;89.00;101408.50;5070135;28;20029;-77
2022/06/18 01:22:38;;;;;;;8.98;4.50;;;;;;;22.09;89.26;101411.81;5082595;28;20070;-77
2022/06/18 01:25:06;;;;;;;13.38;4.82;;;;;;;22.06;90.08;101401.03;5091748;28;20028;-77
2022/06/18 01:27:37;;;;;;;9.88;4.55;;;;;;;22.00;90.35;101396.19;5064117;28;20036;-77
2022/06/18 01:30:11;;;;;;;22.88;5.13;;;;;;;21.97;91.00;101402.13;5086203;28;20111;-77
2022/06/18 01:32:38;;;;;;;8.82;4.75;;;;;;;21.91;90.78;101386.16;5092507;28;20111;-77
2022/06/18 01:35:05;;;;;;;8.80;5.22;;;;;;;21.93;90.93;101392.41;5094976;28;20024;-77
2022/06/18 01:37:31;;;;;;;11.00;4.75;;;;;;;21.94;91.31;101392.22;5078657;28;20501;-77
2022/06/18 01:39:57;;;;;;;14.90;4.90;;;;;;;21.90;91.47;101395.56;5075134;28;20145;-76
2022/06/18 01:42:27;;;;;;;13.57;4.88;;;;;;;21.76;92.00;101398.06;5080439;28;20103;-77
2022/06/18 01:45:10;;;;;;;9.23;4.60;;;;;;;21.81;91.99;101397.53;5082768;28;20051;-77
2022/06/18 01:48:01;;;;;;;9.40;4.82;;;;;;;21.72;93.12;101398.59;5074448;28;20533;-78
2022/06/18 01:50:43;;;;;;;7.70;4.75;;;;;;;21.66;93.20;101397.41;5083753;28;20035;-77
2022/06/18 01:53:24;;;;;;;9.10;5.17;;;;;;;21.56;93.81;101391.19;5071455;28;20762;-78
2022/06/18 01:55:58;;;;;;;19.35;5.20;;;;;;;21.48;94.54;101395.75;5089649;28;20028;-77
2022/06/18 01:58:35;;;;;;;13.13;5.50;;;;;;;21.47;95.05;101399.56;5087142;28;20107;-77
2022/06/18 02:01:05;;;;;;;12.40;5.15;;;;;;;21.41;95.17;101402.19;5092210;28;20028;-77
2022/06/18 02:03:30;;;;;;;12.05;5.97;;;;;;;21.51;94.95;101393.66;5089473;28;20541;-77
2022/06/18 02:05:57;;;;;;;16.58;5.72;;;;;;;21.48;94.91;101394.91;5065693;28;20036;-77
2022/06/18 02:08:22;;;;;;;13.93;5.65;;;;;;;21.37;95.87;101406.41;5081886;28;20422;-77
2022/06/18 02:10:54;;;;;;;12.65;5.47;;;;;;;21.41;95.51;101400.25;5074551;28;20033;-78
2022/06/18 02:13:23;;;;;;;12.68;6.80;;;;;;;21.31;96.71;101394.03;5093352;28;20036;-77
2022/06/18 02:15:52;;;;;;;12.77;6.22;;;;;;;21.21;97.51;101394.22;5083733;28;20036;-77
2022/06/18 02:18:18;;;;;;;17.05;5.82;;;;;;;21.16;98.53;101390.25;5090952;28;20039;-78
2022/06/18 02:20:49;;;;;;;8.65;5.57;;;;;;;21.13;98.75;101387.81;5072689;28;20049;-78
2022/06/18 02:23:16;;;;;;;11.27;6.05;;;;;;;21.04;99.45;101387.84;5076118;28;20042;-78
2022/06/18 02:25:41;;;;;;;19.73;6.57;;;;;;;20.91;99.97;101381.97;5080049;28;20054;-78
2022/06/18 02:28:18;;;;;;;14.45;6.15;;;;;;;20.89;100.00;101379.34;5072734;28;20036;-78
2022/06/18 02:30:43;;;;;;;11.85;6.00;;;;;;;20.89;100.00;101386.81;5059896;28;20123;-77
2022/06/18 02:33:33;;;;;;;16.98;6.20;;;;;;;20.85;100.00;101389.09;5081881;28;20133;-78
2022/06/18 02:36:05;;;;;;;9.93;6.35;;;;;;;20.89;100.00;101392.38;5073014;28;20089;-78
2022/06/18 02:38:31;;;;;;;15.82;6.13;;;;;;;20.80;100.00;101396.25;5081301;28;20035;-78
2022/06/18 02:40:57;;;;;;;10.95;7.05;;;;;;;20.69;100.00;101378.88;5079854;28;20412;-78
2022/06/18 02:43:22;;;;;;;12.52;6.78;;;;;;;20.74;100.00;101387.56;5092569;28;20095;-77
2022/06/18 02:45:53;;;;;;;12.40;6.90;;;;;;;20.69;100.00;101384.44;5075584;28;20048;-77
2022/06/18 02:48:21;;;;;;;17.27;7.30;;;;;;;20.62;100.00;101379.69;5089533;28;20040;-78
2022/06/18 02:50:46;;;;;;;16.15;6.80;;;;;;;20.71;100.00;101375.88;5090579;28;20044;-77
2022/06/18 02:53:12;;;;;;;15.68;7.68;;;;;;;20.62;100.00;101380.56;5089713;28;20036;-78
2022/06/18 02:55:48;;;;;;;12.43;7.53;;;;;;;20.63;100.00;101374.00;5088108;28;20081;-77
2022/06/18 02:58:17;;;;;;;12.20;7.28;;;;;;;20.65;100.00;101379.38;5075853;28;20376;-77
2022/06/18 03:00:53;;;;;;;14.63;7.55;;;;;;;20.69;100.00;101372.41;5058109;28;20474;-77
2022/06/18 03:03:20;;;;;;;21.08;7.10;;;;;;;20.65;100.00;101385.81;5093932;28;20051;-78
2022/06/18 03:05:46;;;;;;;17.73;7.35;;;;;;;20.62;100.00;101382.47;5074415;28;20051;-78
2022/06/18 03:08:12;;;;;;;19.65;7.88;;;;;;;20.55;100.00;101385.94;5071894;28;20036;-78
2022/06/18 03:13:23;;;;;;;15.80;7.63;;;;;;;20.59;100.00;101380.03;5078865;28;20037;-78
2022/06/18 03:15:51;;;;;;;13.93;7.82;;;;;;;20.56;100.00;101389.59;5063341;28;20040;-78
2022/06/18 03:18:19;;;;;;;16.92;7.90;;;;;;;20.52;100.00;101396.56;5068092;28;20028;-78
2022/06/18 03:20:52;;;;;;;13.00;8.85;;;;;;;20.55;100.00;101382.31;5092949;28;20064;-78
2022/06/18 03:23:18;;;;;;;18.83;8.35;;;;;;;20.53;100.00;101389.97;5092581;28;20032;-78
2022/06/18 03:25:44;;;;;;;21.10;8.00;;;;;;;20.52;100.00;101397.44;5073773;28;20120;-78
2022/06/18 03:28:14;;;;;;;13.98;8.32;;;;;;;20.51;100.00;101394.81;5071124;28;20503;-78
2022/06/18 03:30:41;;;;;;;26.77;8.75;;;;;;;20.55;100.00;101396.22;5075230;28;20037;-78
2022/06/18 03:33:07;;;;;;;18.45;8.15;;;;;;;20.53;100.00;101396.41;5090459;28;20047;-78
2022/06/18 03:35:33;;;;;;;18.67;9.10;;;;;;;20.51;100.00;101392.03;5075862;28;20043;-78
2022/06/18 03:37:59;;;;;;;14.35;8.57;;;;;;;20.53;100.00;101392.75;5083770;28;20037;-78
2022/06/18 03:40:24;;;;;;;19.55;9.20;;;;;;;20.55;100.00;101387.88;5082775;28;20139;-78
2022/06/18 03:42:51;;;;;;;18.35;9.73;;;;;;;20.54;100.00;101386.97;5095136;28;20399;-78
2022/06/18 03:45:17;;;;;;;20.92;9.45;;;;;;;20.52;100.00;101388.22;5051555;28;20112;-78
2022/06/18 03:47:43;;;;;;;20.05;9.90;;;;;;;20.58;100.00;101387.53;5072598;28;20055;-77
2022/06/18 03:50:13;;;;;;;26.25;10.13;;;;;;;20.59;100.00;101392.03;5093118;28;20062;-78
2022/06/18 03:52:39;;;;;;;19.40;10.00;;;;;;;20.64;100.00;101381.28;5079526;28;20032;-78
2022/06/18 03:55:05;;;;;;;20.77;10.52;;;;;;;20.63;100.00;101386.97;5081267;28;20545;-77
2022/06/18 03:57:30;;;;;;;29.63;11.30;;;;;;;20.68;100.00;101388.25;5072679;28;20131;-77
2022/06/18 03:59:56;;;;;;;19.58;9.90;;;;;;;20.74;100.00;101386.66;5052372;28;20064;-78
2022/06/18 04:02:21;;;;;;;21.85;10.77;;;;;;;20.76;100.00;101384.59;5088162;28;20044;-78
2022/06/18 04:04:47;;;;;;;33.33;11.30;;;;;;;20.73;100.00;101385.81;5076834;28;20039;-78
2022/06/18 04:07:22;;;;;;;20.10;10.80;;;;;;;20.75;100.00;101386.50;5084660;28;20105;-77
2022/06/18 04:09:50;;;;;;;21.35;10.50;;;;;;;20.85;100.00;101393.78;5079956;28;20040;-77
2022/06/18 04:12:17;;;;;;;28.08;11.25;;;;;;;20.92;100.00;101390.13;5085958;28;20036;-77
2022/06/18 04:14:43;;;;;;;23.73;10.95;;;;;;;20.96;100.00;101381.44;5073068;28;20499;-77
2022/06/18 04:17:14;;;;;;;28.65;10.45;;;;;;;20.98;100.00;101388.53;5076141;28;20383;-78
2022/06/18 04:19:40;;;;;;;31.48;10.68;;;;;;;20.91;100.00;101376.41;5084628;28;20027;-77
2022/06/18 04:22:06;;;;;;;26.45;12.52;;;;;;;20.90;100.00;101385.78;5067948;28;20039;-78
2022/06/18 04:24:32;;;;;;;22.10;11.32;;;;;;;20.92;100.00;101375.31;5077243;28;20039;-78
2022/06/18 04:26:58;;;;;;;25.23;11.05;;;;;;;20.98;100.00;101374.63;5090764;28;20032;-78
2022/06/18 04:29:24;;;;;;;26.25;11.40;;;;;;;20.90;100.00;101374.66;5081131;28;20040;-78
2022/06/18 04:31:50;;;;;;;24.45;11.70;;;;;;;20.99;100.00;101375.47;5077191;28;20044;-77
2022/06/18 04:34:16;;;;;;;23.10;11.73;;;;;;;21.03;100.00;101380.53;5074628;28;20360;-78
2022/06/18 04:36:42;;;;;;;24.65;11.82;;;;;;;21.02;100.00;101383.50;5076602;28;20024;-77
2022/06/18 04:39:09;;;;;;;32.90;12.25;;;;;;;21.10;100.00;101383.47;5079297;28;20056;-78
2022/06/18 04:41:35;;;;;;;25.83;12.75;;;;;;;21.16;100.00;101379.97;5086759;28;20094;-78
2022/06/18 04:44:02;;;;;;;28.00;11.68;;;;;;;21.24;100.00;101384.66;5076426;28;20052;-78
2022/06/18 04:46:28;;;;;;;29.48;12.07;;;;;;;21.27;100.00;101387.09;5042199;28;20131;-78
2022/06/18 04:48:54;;;;;;;26.42;11.55;;;;;;;21.27;100.00;101387.09;5086002;28;20031;-78
2022/06/18 04:51:19;;;;;;;22.30;10.73;;;;;;;21.29;100.00;101379.41;5080172;28;20437;-78
2022/06/18 04:53:45;;;;;;;26.83;11.93;;;;;;;21.35;100.00;101391.75;5086656;28;20036;-78
2022/06/18 04:56:11;;;;;;;27.02;11.52;;;;;;;21.42;100.00;101381.66;5089641;28;20043;-78
2022/06/18 04:58:36;;;;;;;26.52;11.35;;;;;;;21.50;100.00;101376.06;5097555;28;20467;-78
2022/06/18 05:01:02;;;;;;;28.30;11.32;;;;;;;21.58;100.00;101372.34;5096231;28;20032;-79
2022/06/18 05:03:28;;;;;;;30.83;12.18;;;;;;;21.57;100.00;101379.00;5067560;28;20060;-78
2022/06/18 05:05:53;;;;;;;27.38;12.35;;;;;;;21.58;100.00;101370.47;5083600;28;20475;-79
2022/06/18 05:08:19;;;;;;;36.80;12.55;;;;;;;21.73;100.00;101378.06;5078981;28;20508;-78
2022/06/18 05:10:45;;;;;;;27.08;12.18;;;;;;;22.06;97.39;101381.50;5058532;28;20029;-77
2022/06/18 05:13:12;;;;;;;38.33;11.70;;;;;;;22.02;97.39;101383.81;5078506;28;20064;-76
2022/06/18 05:15:40;;;;;;;34.65;11.27;;;;;;;22.10;96.63;101384.78;5086857;28;20131;-78
2022/06/18 05:18:07;;;;;;;24.98;11.93;;;;;;;22.05;96.89;101376.97;5092867;28;20127;-79
2022/06/18 05:20:33;;;;;;;26.33;12.05;;;;;;;22.10;96.92;101380.06;5088133;28;20475;-80
2022/06/18 05:22:59;;;;;;;25.05;11.25;;;;;;;22.14;96.56;101380.59;5082558;28;20035;-79
2022/06/18 05:25:25;;;;;;;25.33;11.70;;;;;;;22.23;95.69;101385.03;5091289;28;20032;-79
2022/06/18 05:27:50;;;;;;;26.77;10.82;;;;;;;22.50;95.82;101382.78;5100159;28;20036;-79
2022/06/18 05:30:21;;;;;;;40.22;12.25;;;;;;;22.64;93.76;101395.06;5087146;28;20046;-79
2022/06/18 05:32:47;;;;;;;31.27;12.18;;;;;;;22.58;94.40;101389.16;5092908;28;20104;-80
2022/06/18 05:35:14;;;;;;;33.50;12.23;;;;;;;22.54;94.26;101396.16;5064532;28;20060;-80
2022/06/18 05:37:40;;;;;;;32.78;12.85;;;;;;;22.80;93.66;101394.91;5097283;28;20052;-80
2022/06/18 05:40:07;;;;;;;24.25;11.20;;;;;;;22.96;91.93;101396.69;5097312;28;20051;-80
2022/06/18 05:42:33;;;;;;;29.98;12.13;;;;;;;22.83;92.78;101400.09;5070140;28;20388;-81
2022/06/18 05:44:59;;;;;;;30.45;11.90;;;;;;;23.06;92.36;101393.59;5087704;28;20089;-80
2022/06/18 05:47:27;;;;;;;35.00;11.85;;;;;;;23.08;91.40;101400.75;5070635;28;20498;-80
2022/06/18 05:49:56;;;;;;;31.40;12.02;;;;;;;23.17;90.35;101403.47;5089521;28;20024;-81
2022/06/18 05:52:22;;;;;;;35.85;11.90;;;;;;;23.53;89.74;101400.78;5087376;28;20020;-80
2022/06/18 05:54:51;;;;;;;42.45;12.43;;;;;;;23.50;89.95;101403.97;5095458;28;20422;-81
2022/06/18 05:57:19;;;;;;;26.65;12.38;;;;;;;23.94;86.95;101403.06;5086765;28;20037;-81
2022/06/18 05:59:45;;;;;;;31.30;13.15;;;;;;;23.90;86.01;101398.91;5073507;28;20506;-81
2022/06/18 06:02:12;;;;;;;32.55;12.55;;;;;;;23.93;87.62;101404.13;5091216;28;20032;-79
2022/06/18 06:04:39;;;;;;;51.45;13.15;;;;;;;24.57;84.68;101402.47;5071485;28;20027;-78
2022/06/18 06:07:06;;;;;;;35.03;14.30;;;;;;;24.07;85.48;101407.97;5084829;28;20094;-75
2022/06/18 06:12:16;;;;;;;34.58;13.38;;;;;;;24.54;82.41;101409.28;5075188;28;20044;-77
2022/06/18 06:14:42;;;;;;;31.95;12.82;;;;;;;24.25;83.68;101403.81;5051184;28;20043;-76
2022/06/18 06:17:23;;;;;;;40.92;12.43;;;;;;;24.81;81.64;101405.91;5074175;28;20086;-77
2022/06/18 06:19:49;;;;;;;28.73;10.93;;;;;;;24.32;82.91;101404.78;5087606;28;20036;-78
2022/06/18 06:22:15;;;;;;;26.92;10.20;;;;;;;25.44;78.72;101403.16;5079411;28;20112;-78
2022/06/18 06:24:41;;;;;;;30.55;11.13;;;;;;;25.29;79.18;101400.50;5077980;28;20356;-78
2022/06/18 06:27:07;;;;;;;34.95;11.00;;;;;;;25.09;79.87;101392.78;5051670;28;20032;-78
2022/06/18 06:29:32;;;;;;;27.15;11.70;;;;;;;24.42;82.62;101398.84;5089449;28;20103;-78
2022/06/18 06:31:58;;;;;;;27.95;12.38;;;;;;;24.68;81.12;101387.06;5080845;28;20033;-78
2022/06/18 06:34:24;;;;;;;25.08;10.32;;;;;;;25.43;80.21;101387.41;5052905;28;20039;-78
2022/06/18 06:36:51;;;;;;;29.98;11.38;;;;;;;25.43;77.29;101390.22;5063363;28;20036;-78
2022/06/18 06:39:17;;;;;;;33.78;11.00;;;;;;;24.90;80.13;101385.94;5080915;28;20500;-77
2022/06/18 06:41:44;;;;;;;29.83;11.23;;;;;;;25.39;78.38;101394.53;5077160;28;20066;-77
2022/06/18 06:44:10;;;;;;;32.53;11.23;;;;;;;25.37;79.76;101391.91;5077236;28;20116;-78
2022/06/18 06:46:36;;;;;;;36.25;11.25;;;;;;;25.88;77.65;101390.66;5086085;28;20032;-77
2022/06/18 06:49:01;;;;;;;28.02;11.93;;;;;;;26.03;75.58;101388.56;5072272;28;20039;-77
2022/06/18 06:51:29;;;;;;;26.30;11.38;;;;;;;25.84;74.93;101386.53;5069029;28;20044;-78
2022/06/18 06:53:55;;;;;;;30.13;11.43;;;;;;;25.35;77.11;101394.06;5090858;28;20024;-77
2022/06/18 06:59:08;;;;;;;32.83;11.50;;;;;;;25.53;76.72;101385.13;5093392;28;20065;-77
2022/06/18 07:01:37;;;;;;;42.70;11.70;;;;;;;25.54;75.60;101391.56;5075524;28;20028;-77
2022/06/18 07:04:09;;;;;;;35.17;11.27;;;;;;;25.92;74.19;101382.66;5067234;28;20074;-77
2022/06/18 07:06:35;;;;;;;32.22;11.82;;;;;;;25.96;74.85;101384.88;5068228;28;20066;-77
2022/06/18 07:09:05;;;;;;;47.95;11.00;;;;;;;25.95;74.46;101385.06;5090595;28;20151;-77
2022/06/18 07:11:33;;;;;;;32.22;10.60;;;;;;;26.20;73.84;101386.25;5091827;28;20024;-77
2022/06/18 07:13:59;;;;;;;27.98;9.48;;;;;;;26.57;73.16;101377.44;5087004;28;20036;-77
2022/06/18 07:16:25;;;;;;;28.15;11.07;;;;;;;26.75;71.36;101386.13;5074290;28;20040;-77
2022/06/18 07:18:53;;;;;;;39.15;11.43;;;;;;;26.11;72.85;101373.47;5060917;28;20035;-75
2022/06/18 07:21:21;;;;;;;32.60;9.75;;;;;;;27.07;72.03;101377.00;5071836;28;20036;-75
2022/06/18 07:23:47;;;;;;;40.42;10.10;;;;;;;27.18;70.68;101381.97;5055262;28;20036;-76
2022/06/18 07:26:21;;;;;;;38.42;10.80;;;;;;;27.16;71.43;101377.66;5047709;28;20036;-75
2022/06/18 07:28:48;;;;;;;37.50;10.70;;;;;;;27.48;70.32;101384.31;5067738;28;20475;-75
2022/06/18 07:31:17;;;;;;;37.53;11.23;;;;;;;27.46;68.91;101384.53;5082211;28;20029;-75
2022/06/18 07:33:45;;;;;;;34.22;10.55;;;;;;;27.53;70.31;101378.03;5087396;28;20095;-76
2022/06/18 07:36:11;;;;;;;32.08;10.23;;;;;;;27.87;67.44;101385.25;5086501;28;20123;-75
2022/06/18 07:38:36;;;;;;;27.63;9.82;;;;;;;27.66;67.83;101378.84;5083566;28;20511;-75
2022/06/18 07:41:04;;;;;;;29.38;9.65;;;;;;;28.18;66.49;101380.78;5085323;28;20044;-75
2022/06/18 07:43:38;;;;;;;27.15;9.55;;;;;;;27.87;67.42;101374.84;5063997;28;20078;-75
2022/06/18 07:46:05;;;;;;;32.92;9.65;;;;;;;28.82;63.31;101377.97;5077365;28;20063;-76
2022/06/18 07:48:32;;;;;;;42.78;10.02;;;;;;;28.27;67.16;101373.81;5078531;28;20452;-74
2022/06/18 07:50:57;;;;;;;31.60;10.20;;;;;;;29.47;62.71;101372.75;5090911;28;20034;-76
2022/06/18 07:53:25;;;;;;;33.22;9.40;;;;;;;29.31;63.08;101374.25;5063957;28;20488;-76
2022/06/18 07:55:51;;;;;;;34.42;9.75;;;;;;;29.51;61.57;101367.50;5065138;28;20164;-76
2022/06/18 07:58:17;;;;;;;28.10;9.63;;;;;;;29.14;61.31;101365.50;5072649;28;20379;-76
2022/06/18 08:00:44;;;;;;;31.00;9.48;;;;;;;29.59;60.26;101363.50;5080020;28;21540;-75
2022/06/18 08:03:12;;;;;;;32.35;10.10;;;;;;;29.30;60.94;101349.09;5087425;28;20062;-76
2022/06/18 08:05:38;;;;;;;31.55;10.25;;;;;;;29.22;61.90;101364.38;5080969;28;20118;-75
2022/06/18 08:08:05;;;;;;;37.63;9.98;;;;;;;29.31;61.07;101360.13;5098045;28;20552;-76
2022/06/18 08:10:36;;;;;;;36.17;9.50;;;;;;;29.35;60.36;101354.88;5082408;28;20166;-75
2022/06/18 08:13:03;;;;;;;27.63;8.55;;;;;;;29.77;60.61;101355.03;5082609;28;20491;-76
2022/06/18 08:15:30;;;;;;;30.17;9.57;;;;;;;30.02;60.02;101351.22;5061056;28;20051;-76
2022/06/18 08:17:56;;;;;;;32.40;9.25;;;;;;;29.97;60.26;101353.91;5074690;28;20454;-75
2022/06/18 08:20:22;;;;;;;35.55;9.38;;;;;;;30.53;57.73;101341.38;5084589;28;20046;-75
2022/06/18 08:22:50;;;;;;;28.15;9.70;;;;;;;29.77;59.36;101343.72;5066184;28;20043;-76
2022/06/18 08:25:18;;;;;;;36.00;9.70;;;;;;;29.26;60.91;101342.19;5073549;28;20099;-75
2022/06/18 08:27:46;;;;;;;37.13;9.70;;;;;;;29.53;59.69;101337.09;5083717;28;20024;-76
2022/06/18 08:30:13;;;;;;;34.95;10.02;;;;;;;29.83;61.49;101333.50;5092395;28;20090;-75
2022/06/18 08:32:38;;;;;;;34.70;9.85;;;;;;;29.60;61.84;101331.34;5089717;28;20043;-76
2022/06/18 08:35:05;;;;;;;50.80;10.70;;;;;;;29.72;62.49;101331.44;5070517;28;20468;-76
2022/06/18 08:37:32;;;;;;;34.90;9.77;;;;;;;29.76;63.56;101332.66;5076401;28;20032;-76
2022/06/18 08:39:59;;;;;;;33.28;10.48;;;;;;;30.29;59.34;101331.94;5079990;28;20407;-75
2022/06/18 08:42:47;;;;;;;28.73;9.50;;;;;;;30.29;59.73;101328.25;5090925;28;20032;-75
2022/06/18 08:45:44;;;;;;;45.95;10.38;;;;;;;30.20;60.99;101327.72;5074006;28;20032;-75
2022/06/18 08:48:16;;;;;;;28.15;9.80;;;;;;;30.67;58.24;101324.16;5076249;28;20484;-75
2022/06/18 08:50:51;;;;;;;29.67;9.27;;;;;;;31.01;56.54;101327.25;5077094;28;20020;-75
2022/06/18 08:53:46;;;;;;;26.45;9.85;;;;;;;30.37;59.46;101322.28;5077907;28;20043;-75
2022/06/18 08:56:18;;;;;;;37.45;9.65;;;;;;;29.95;59.78;101323.09;5020176;28;20050;-75
2022/06/18 08:59:21;;;;;;;21.15;8.60;;;;;;;30.44;58.99;101330.66;5088718;28;20030;-75
2022/06/18 09:01:54;;;;;;;42.95;9.80;;;;;;;30.83;57.23;101326.28;5074973;28;20441;-76
2022/06/18 09:04:35;;;;;;;30.80;9.40;;;;;;;31.30;56.09;101323.44;5080878;28;20028;-77
2022/06/18 09:07:17;;;;;;;43.10;9.35;;;;;;;31.60;53.67;101332.84;5079335;28;20024;-76
2022/06/18 09:10:01;;;;;;;34.47;9.13;;;;;;;30.84;56.32;101332.78;5070979;28;20047;-77
2022/06/18 09:12:32;;;;;;;31.23;8.73;;;;;;;31.04;57.04;101329.59;5076518;28;20598;-78
2022/06/18 09:15:20;;;;;;;40.33;10.13;;;;;;;31.07;56.15;101331.94;5084098;28;20043;-76
2022/06/18 09:18:25;;;;;;;33.72;8.55;;;;;;;31.08;55.56;101328.00;5081675;28;20097;-76
2022/06/18 09:20:56;;;;;;;29.02;8.63;;;;;;;30.99;54.81;101330.34;5059856;28;20037;-76
2022/06/18 09:23:26;;;;;;;41.55;9.48;;;;;;;31.48;53.10;101341.34;5084300;28;20127;-76
2022/06/18 09:25:54;;;;;;;27.83;9.80;;;;;;;31.44;54.50;101341.00;5074229;28;20081;-77
2022/06/18 09:28:41;;;;;;;32.33;8.30;;;;;;;31.22;54.90;101337.97;5064887;28;20032;-74
2022/06/18 09:31:20;;;;;;;35.85;8.82;;;;;;;30.90;54.69;101332.66;5086179;28;20044;-75
2022/06/18 09:34:00;;;;;;;31.95;9.27;;;;;;;31.17;55.13;101331.31;5078774;28;20028;-74
2022/06/18 09:36:33;;;;;;;26.75;8.60;;;;;;;31.85;52.12;101333.38;5078838;28;20548;-74
2022/06/18 09:39:08;;;;;;;37.05;9.40;;;;;;;31.33;53.25;101339.91;5082444;28;20532;-75
2022/06/18 09:41:42;;;;;;;37.58;9.80;;;;;;;31.36;53.95;101332.88;5089427;28;20036;-75
2022/06/18 09:44:24;;;;;;;29.17;8.05;;;;;;;31.34;52.92;101329.47;5089240;28;20379;-75
2022/06/18 09:46:58;;;;;;;27.23;8.38;;;;;;;31.58;51.49;101326.59;5073173;28;20021;-75
2022/06/18 09:49:24;;;;;;;37.97;8.73;;;;;;;31.89;52.74;101328.06;5086307;28;20032;-76
2022/06/18 09:52:26;;;;;;;37.53;8.50;;;;;;;32.23;51.30;101331.03;5084857;28;20517;-75
2022/06/18 09:54:50;;;;;;;34.00;8.52;;;;;;;32.57;48.65;101334.75;5072725;28;20032;-77
2022/06/18 09:57:18;;;;;;;27.17;8.32;;;;;;;31.28;51.93;101325.63;5075060;28;20041;-76
2022/06/18 10:00:21;;;;;;;36.30;8.23;;;;;;;31.24;52.31;101334.88;5087992;28;20031;-76
2022/06/18 10:02:57;;;;;;;35.10;9.27;;;;;;;31.76;50.60;101326.41;5033967;28;20077;-76
2022/06/18 10:08:15;;;;;;;35.13;8.50;;;;;;;31.94;51.13;101314.00;5082756;28;20051;-77
2022/06/18 10:10:47;;;;;;;34.78;9.02;;;;;;;32.35;47.95;101306.31;5073995;28;20062;-77
2022/06/18 10:13:18;;;;;;;26.92;8.68;;;;;;;31.98;50.92;101309.56;5079076;28;20111;-77
2022/06/18 10:15:44;;;;;;;26.90;7.57;;;;;;;31.77;51.72;101310.28;5077754;28;20032;-77
2022/06/18 10:18:28;;;;;;;36.80;8.05;;;;;;;32.23;50.65;101319.69;5072448;28;20036;-77
2022/06/18 10:21:31;;;;;;;34.25;9.52;;;;;;;32.36;48.93;101307.16;5071037;28;20040;-76
2022/06/18 10:24:22;;;;;;;29.27;8.30;;;;;;;32.39;48.71;101306.66;5091499;28;20036;-77
2022/06/18 10:27:11;;;;;;;29.02;8.95;;;;;;;32.66;49.22;101304.00;5072885;28;20081;-76
2022/06/18 10:29:44;;;;;;;39.33;8.00;;;;;;;32.50;48.35;101302.00;5079922;28;20471;-75
2022/06/18 10:32:28;;;;;;;28.92;8.38;;;;;;;32.92;48.09;101298.75;5076627;28;20028;-76
2022/06/18 10:35:16;;;;;;;38.80;8.15;;;;;;;33.18;45.97;101293.47;5074117;28;20032;-76
2022/06/18 10:37:57;;;;;;;28.05;7.65;;;;;;;32.73;48.46;101287.69;5089177;28;20502;-75
2022/06/18 10:40:51;;;;;;;40.03;8.75;;;;;;;33.04;46.79;101285.31;5087413;28;20040;-76
2022/06/18 10:43:32;;;;;;;33.20;7.90;;;;;;;32.20;47.76;101291.84;5086244;28;20530;-76
2022/06/18 10:46:01;;;;;;;;;;;;;;;32.89;46.08;101282.25;5092846;28;20383;-76
2022/06/18 10:48:30;;;;;;;33.80;7.78;;;;;;;32.69;44.67;101279.97;5093786;28;19908;-76
2022/06/18 10:50:58;;;;;;;27.13;7.88;;;;;;;32.35;46.40;101283.66;5073386;28;20030;-76
2022/06/18 10:53:28;;;;;;;30.55;6.82;;;;;;;32.95;45.23;101273.53;5092651;28;20364;-76
2022/06/18 10:56:02;;;;;;;29.15;7.90;;;;;;;32.86;45.63;101277.97;5073140;28;20036;-76
2022/06/18 10:58:28;;;;;;;32.45;7.97;;;;;;;33.13;45.72;101277.22;5073153;28;20107;-75
2022/06/18 11:01:04;;;;;;;24.42;7.28;;;;;;;33.56;43.54;101271.81;5083924;28;20032;-76
2022/06/18 11:03:33;;;;;;;24.42;7.63;;;;;;;32.98;43.64;101270.19;5071721;28;20076;-76
2022/06/18 11:06:04;;;;;;;28.92;7.25;;;;;;;33.56;43.45;101271.81;5078877;28;20115;-76
2022/06/18 11:08:32;;;;;;;41.42;7.35;;;;;;;33.31;43.55;101270.38;5082141;28;20048;-76
2022/06/18 11:11:02;;;;;;;29.15;7.07;;;;;;;33.63;44.31;101253.47;5073944;28;20028;-76
2022/06/18 11:13:28;;;;;;;36.33;7.18;;;;;;;33.42;42.70;101248.63;5086418;28;20059;-76
2022/06/18 11:16:24;;;;;;;32.03;7.53;;;;;;;33.67;43.57;101254.63;5084418;28;20479;-76
2022/06/18 11:19:02;;;;;;;39.78;7.85;;;;;;;33.57;42.14;101248.00;5070426;28;20461;-76
2022/06/18 11:21:39;;;;;;;28.33;6.53;;;;;;;33.74;41.62;101247.91;5081294;28;20028;-76
2022/06/18 11:24:04;;;;;;;38.85;6.95;;;;;;;33.62;41.36;101243.22;5083817;28;20074;-75
2022/06/18 11:26:30;;;;;;;32.78;6.78;;;;;;;33.38;42.24;101230.44;5088774;28;20036;-75
2022/06/18 11:29:01;;;;;;;31.38;6.38;;;;;;;33.64;41.96;101240.94;5088043;28;20035;-75
2022/06/18 11:31:31;;;;;;;39.97;7.13;;;;;;;33.78;39.99;101227.22;5072131;28;20044;-76
2022/06/18 11:33:59;;;;;;;39.50;6.95;;;;;;;33.51;40.09;101222.34;5086161;28;20044;-76
2022/06/18 11:36:44;;;;;;;32.03;7.50;;;;;;;33.21;42.37;101222.84;5074065;28;20373;-76
2022/06/18 11:39:36;;;;;;;30.92;6.85;;;;;;;33.91;41.83;101220.25;5083539;28;20468;-76
2022/06/18 11:42:06;;;;;;;30.03;6.63;;;;;;;33.81;41.30;101205.94;5070962;28;20518;-76